createdAt,value
2023-02-27T00:00:23.248Z,1.30
2023-02-27T00:02:52.568Z,1.20
2023-02-27T00:05:22.548Z,1.20
2023-02-27T00:07:49.762Z,1.20
2023-02-27T00:10:18.314Z,1.20
2023-02-27T00:12:45.512Z,1.20
2023-02-27T00:15:16.930Z,1.20
2023-02-27T00:17:44.781Z,1.20
2023-02-27T00:20:16.579Z,1.20
2023-02-27T00:22:44.654Z,1.20
2023-02-27T00:25:13.241Z,1.10
2023-02-27T00:27:41.507Z,1.10
2023-02-27T00:30:12.785Z,1.00
2023-02-27T00:32:40.740Z,1.00
2023-02-27T00:35:10.727Z,1.00
2023-02-27T00:38:01.645Z,1.00
2023-02-27T00:40:29.110Z,1.00
2023-02-27T00:43:06.248Z,1.10
2023-02-27T00:45:34.489Z,1.00
2023-02-27T00:48:01.593Z,1.10
2023-02-27T00:50:28.675Z,1.10
2023-02-27T00:52:55.924Z,1.00
2023-02-27T00:55:22.877Z,1.00
2023-02-27T00:57:50.374Z,1.00
2023-02-27T01:00:17.890Z,1.00
2023-02-27T01:02:45.022Z,1.00
2023-02-27T01:05:12.197Z,0.90
2023-02-27T01:07:39.492Z,0.90
2023-02-27T01:10:08.570Z,1.00
2023-02-27T01:12:35.620Z,1.00
2023-02-27T01:15:04.176Z,0.90
2023-02-27T01:17:31.871Z,0.80
2023-02-27T01:19:59.168Z,0.70
2023-02-27T01:22:26.290Z,0.70
2023-02-27T01:24:53.239Z,0.60
2023-02-27T01:27:20.294Z,0.50
2023-02-27T01:29:49.318Z,0.50
2023-02-27T01:32:16.711Z,0.40
2023-02-27T01:34:57.961Z,0.40
2023-02-27T01:37:26.029Z,0.40
2023-02-27T01:39:53.070Z,0.40
2023-02-27T01:42:28.879Z,0.40
2023-02-27T01:45:41.268Z,0.30
2023-02-27T01:48:18.374Z,0.30
2023-02-27T01:50:59.917Z,0.30
2023-02-27T01:53:29.171Z,0.20
2023-02-27T01:56:02.690Z,0.20
2023-02-27T01:58:29.858Z,0.10
2023-02-27T02:00:57.587Z,0.10
2023-02-27T02:03:40.306Z,0.10
2023-02-27T02:06:08.349Z,0.20
2023-02-27T02:08:43.214Z,0.20
2023-02-27T02:11:11.060Z,0.20
2023-02-27T02:13:40.601Z,0.10
2023-02-27T02:17:04.545Z,0.10
2023-02-27T02:20:20.219Z,0.00
2023-02-27T02:23:49.468Z,0.00
2023-02-27T02:26:51.336Z,0.00
2023-02-27T02:30:09.333Z,0.00
2023-02-27T02:32:57.203Z,0.00
2023-02-27T02:36:05.136Z,-0.10
2023-02-27T02:39:00.331Z,-0.10
2023-02-27T02:42:05.787Z,-0.10
2023-02-27T02:44:55.193Z,-0.20
2023-02-27T02:47:30.852Z,-0.20
2023-02-27T02:50:35.545Z,-0.30
2023-02-27T02:53:53.397Z,-0.30
2023-02-27T02:56:35.844Z,-0.40
2023-02-27T02:59:21.190Z,-0.50
2023-02-27T03:02:14.808Z,-0.50
2023-02-27T03:05:00.768Z,-0.50
2023-02-27T03:07:34.293Z,-0.50
2023-02-27T03:10:08.758Z,-0.50
2023-02-27T03:12:41.162Z,-0.50
2023-02-27T03:15:30.616Z,-0.60
2023-02-27T03:18:17.753Z,-0.60
2023-02-27T03:20:53.470Z,-0.60
2023-02-27T03:23:28.617Z,-0.70
2023-02-27T03:25:58.226Z,-0.70
2023-02-27T03:28:31.134Z,-0.70
2023-02-27T03:31:10.157Z,-0.80
2023-02-27T03:34:18.920Z,-0.80
2023-02-27T03:37:20.840Z,-0.90
2023-02-27T03:39:47.789Z,-0.90
2023-02-27T03:42:42.671Z,-0.90
2023-02-27T03:45:37.509Z,-0.90
2023-02-27T03:48:07.007Z,-0.90
2023-02-27T03:50:37.085Z,-0.90
2023-02-27T03:53:11.790Z,-1.00
2023-02-27T03:55:44.083Z,-1.00
2023-02-27T03:58:11.188Z,-1.10
2023-02-27T04:00:49.608Z,-1.20
2023-02-27T04:03:35.776Z,-1.20
2023-02-27T04:06:22.964Z,-1.20
2023-02-27T04:09:01.667Z,-1.10
2023-02-27T04:11:57.688Z,-1.10
2023-02-27T04:14:40.580Z,-1.10
2023-02-27T04:17:24.287Z,-1.00
2023-02-27T04:20:28.154Z,-0.90
2023-02-27T04:23:33.439Z,-0.90
2023-02-27T04:26:21.937Z,-0.90
2023-02-27T04:29:43.531Z,-0.90
2023-02-27T04:32:31.756Z,-0.80
2023-02-27T04:35:34.426Z,-0.80
2023-02-27T04:38:13.582Z,-0.80
2023-02-27T04:40:50.853Z,-0.90
2023-02-27T04:43:20.260Z,-0.90
2023-02-27T04:45:49.783Z,-1.00
2023-02-27T04:48:34.420Z,-1.10
2023-02-27T04:51:11.670Z,-1.20
2023-02-27T04:53:57.461Z,-1.30
2023-02-27T04:56:31.470Z,-1.30
2023-02-27T04:59:13.916Z,-1.40
2023-02-27T05:02:19.855Z,-1.40
2023-02-27T05:04:49.805Z,-1.50
2023-02-27T05:07:22.292Z,-1.50
2023-02-27T05:10:05.552Z,-1.50
2023-02-27T05:12:56.012Z,-1.60
2023-02-27T05:15:52.950Z,-1.70
2023-02-27T05:18:22.056Z,-1.70
2023-02-27T05:21:15.054Z,-1.80
2023-02-27T05:24:10.780Z,-1.80
2023-02-27T05:27:07.303Z,-1.90
2023-02-27T05:29:51.734Z,-1.90
2023-02-27T05:32:38.802Z,-1.90
2023-02-27T05:35:52.288Z,-1.80
2023-02-27T05:38:46.244Z,-1.80
2023-02-27T05:41:48.944Z,-1.80
2023-02-27T05:44:34.687Z,-1.80
2023-02-27T05:47:17.432Z,-1.80
2023-02-27T05:50:02.198Z,-1.80
2023-02-27T05:52:30.658Z,-1.80
2023-02-27T05:55:32.649Z,-1.80
2023-02-27T05:58:18.992Z,-1.80
2023-02-27T06:00:58.760Z,-1.70
2023-02-27T06:03:28.427Z,-1.80
2023-02-27T06:05:59.979Z,-1.80
2023-02-27T06:08:27.804Z,-1.80
2023-02-27T06:10:55.333Z,-1.90
2023-02-27T06:13:23.247Z,-1.90
2023-02-27T06:15:50.788Z,-1.90
2023-02-27T06:18:18.589Z,-1.90
2023-02-27T06:20:46.869Z,-1.80
2023-02-27T06:23:14.531Z,-1.80
2023-02-27T06:25:42.597Z,-1.90
2023-02-27T06:28:40.906Z,-1.90
2023-02-27T06:31:08.308Z,-1.90
2023-02-27T06:33:36.647Z,-2.00
2023-02-27T06:36:03.907Z,-2.00
2023-02-27T06:38:31.570Z,-2.00
2023-02-27T06:40:58.997Z,-2.00
2023-02-27T06:43:26.273Z,-2.00
2023-02-27T06:45:56.602Z,-2.00
2023-02-27T06:48:23.704Z,-2.00
2023-02-27T06:50:55.195Z,-2.00
2023-02-27T06:53:23.546Z,-2.00
2023-02-27T06:55:50.688Z,-2.00
2023-02-27T06:58:21.148Z,-2.00
2023-02-27T07:00:48.264Z,-1.90
2023-02-27T07:03:15.246Z,-1.80
2023-02-27T07:05:42.817Z,-1.80
2023-02-27T07:08:10.673Z,-1.80
2023-02-27T07:10:38.943Z,-1.70
2023-02-27T07:13:05.990Z,-1.70
2023-02-27T07:15:33.514Z,-1.60
2023-02-27T07:18:26.350Z,-1.50
2023-02-27T07:20:55.222Z,-1.40
2023-02-27T07:23:23.709Z,-1.20
2023-02-27T07:26:14.611Z,-1.10
2023-02-27T07:28:41.645Z,-0.90
2023-02-27T07:31:08.711Z,-0.80
2023-02-27T07:33:35.846Z,-0.60
2023-02-27T07:36:03.065Z,-0.50
2023-02-27T07:38:32.309Z,-0.20
2023-02-27T07:40:59.348Z,-0.10
2023-02-27T07:43:26.506Z,0.00
2023-02-27T07:45:53.525Z,0.10
2023-02-27T07:48:20.537Z,0.20
2023-02-27T07:50:47.602Z,0.30
2023-02-27T07:53:14.616Z,0.50
2023-02-27T07:55:41.875Z,0.60
2023-02-27T07:58:08.831Z,0.70
2023-02-27T08:00:35.940Z,0.80
2023-02-27T08:03:03.010Z,0.90
2023-02-27T08:05:30.134Z,1.00
2023-02-27T08:07:57.223Z,1.10
2023-02-27T08:10:24.974Z,1.20
2023-02-27T08:12:52.096Z,1.40
2023-02-27T08:15:19.135Z,1.80
2023-02-27T08:17:47.166Z,2.20
2023-02-27T08:20:15.781Z,2.60
2023-02-27T08:22:43.120Z,3.00
2023-02-27T08:25:18.281Z,3.80
2023-02-27T08:27:45.259Z,4.90
2023-02-27T08:30:13.341Z,5.90
2023-02-27T08:32:40.741Z,6.70
2023-02-27T08:35:08.114Z,7.30
2023-02-27T08:37:35.127Z,7.70
2023-02-27T08:40:02.285Z,8.00
2023-02-27T08:42:29.306Z,8.20
2023-02-27T08:44:56.533Z,8.60
2023-02-27T08:47:25.183Z,8.90
2023-02-27T08:49:52.187Z,9.10
2023-02-27T08:52:19.110Z,9.20
2023-02-27T08:54:46.148Z,9.20
2023-02-27T08:57:13.099Z,9.50
2023-02-27T08:59:40.146Z,9.70
2023-02-27T09:02:07.715Z,9.90
2023-02-27T09:04:34.950Z,10.10
2023-02-27T09:07:02.053Z,10.00
2023-02-27T09:09:29.022Z,10.10
2023-02-27T09:11:56.033Z,10.20
2023-02-27T09:14:24.105Z,10.40
2023-02-27T09:16:51.228Z,10.60
2023-02-27T09:19:18.229Z,10.40
2023-02-27T09:21:45.226Z,10.30
2023-02-27T09:24:20.106Z,10.30
2023-02-27T09:26:48.709Z,10.10
2023-02-27T09:29:16.279Z,10.20
2023-02-27T09:31:43.351Z,10.10
2023-02-27T09:34:10.373Z,10.00
2023-02-27T09:36:37.376Z,10.10
2023-02-27T09:39:04.457Z,9.90
2023-02-27T09:42:03.814Z,10.00
2023-02-27T09:44:56.297Z,9.80
2023-02-27T09:47:35.797Z,9.50
2023-02-27T09:50:08.285Z,9.30
2023-02-27T09:52:37.725Z,9.20
2023-02-27T09:55:24.780Z,8.90
2023-02-27T09:58:08.306Z,8.90
2023-02-27T10:01:03.342Z,8.90
2023-02-27T10:03:48.434Z,9.00
2023-02-27T10:06:50.950Z,8.80
2023-02-27T10:09:28.700Z,8.60
2023-02-27T10:12:05.838Z,8.40
2023-02-27T10:14:43.488Z,8.10
2023-02-27T10:17:31.352Z,7.90
2023-02-27T10:20:01.125Z,7.80
2023-02-27T10:22:37.798Z,7.70
2023-02-27T10:25:29.878Z,7.70
2023-02-27T10:28:12.287Z,7.60
2023-02-27T10:30:41.177Z,7.30
2023-02-27T10:33:12.962Z,7.30
2023-02-27T10:35:44.566Z,7.30
2023-02-27T10:38:29.403Z,7.20
2023-02-27T10:40:58.276Z,7.20
2023-02-27T10:43:25.600Z,7.20
2023-02-27T10:45:54.358Z,7.10
2023-02-27T10:48:22.916Z,7.20
2023-02-27T10:50:54.124Z,7.30
2023-02-27T10:53:27.969Z,7.40
2023-02-27T10:56:07.697Z,7.60
2023-02-27T10:58:37.159Z,7.80
2023-02-27T11:01:10.778Z,8.10
2023-02-27T11:03:41.821Z,8.30
2023-02-27T11:06:28.274Z,8.20
2023-02-27T11:09:23.692Z,8.20
2023-02-27T11:11:52.274Z,8.00
2023-02-27T11:14:34.867Z,7.80
2023-02-27T11:17:03.241Z,7.70
2023-02-27T11:19:38.709Z,7.80
2023-02-27T11:22:18.562Z,8.00
2023-02-27T11:24:46.272Z,8.10
2023-02-27T11:27:29.147Z,8.30
2023-02-27T11:30:31.620Z,8.70
2023-02-27T11:33:01.508Z,8.80
2023-02-27T11:35:38.798Z,9.00
2023-02-27T11:38:27.920Z,9.10
2023-02-27T11:40:57.440Z,8.90
2023-02-27T11:43:28.721Z,8.90
2023-02-27T11:46:21.451Z,8.80
2023-02-27T11:48:57.154Z,8.80
2023-02-27T11:51:47.503Z,8.90
2023-02-27T11:54:40.288Z,8.80
2023-02-27T11:57:38.962Z,9.10
2023-02-27T12:00:08.399Z,9.40
2023-02-27T12:02:55.290Z,9.20
2023-02-27T12:05:30.746Z,9.20
2023-02-27T12:08:34.846Z,9.30
2023-02-27T12:11:14.203Z,9.10
2023-02-27T12:13:47.807Z,9.10
2023-02-27T12:16:54.142Z,9.10
2023-02-27T12:19:53.184Z,9.10
2023-02-27T12:22:31.494Z,9.00
2023-02-27T12:25:12.562Z,9.20
2023-02-27T12:27:55.639Z,9.10
2023-02-27T12:30:40.260Z,8.90
2023-02-27T12:33:42.865Z,8.90
2023-02-27T12:36:13.557Z,9.20
2023-02-27T12:38:44.376Z,9.30
2023-02-27T12:41:48.556Z,9.30
2023-02-27T12:44:59.772Z,9.20
2023-02-27T12:47:39.753Z,9.00
2023-02-27T12:50:18.563Z,8.90
2023-02-27T12:53:05.800Z,8.70
2023-02-27T12:55:48.753Z,8.80
2023-02-27T12:58:25.000Z,8.90
2023-02-27T13:01:13.957Z,9.00
2023-02-27T13:03:49.578Z,9.20
2023-02-27T13:06:45.135Z,9.60
2023-02-27T13:09:36.927Z,9.90
2023-02-27T13:12:29.916Z,10.10
2023-02-27T13:15:04.270Z,10.10
2023-02-27T13:17:41.262Z,10.20
2023-02-27T13:20:37.215Z,10.20
2023-02-27T13:23:04.088Z,10.50
2023-02-27T13:25:32.644Z,10.30
2023-02-27T13:28:08.883Z,10.30
2023-02-27T13:30:42.204Z,10.30
2023-02-27T13:33:41.582Z,10.10
2023-02-27T13:36:47.049Z,9.70
2023-02-27T13:39:47.654Z,9.40
2023-02-27T13:42:26.926Z,9.20
2023-02-27T13:45:09.090Z,9.10
2023-02-27T13:47:47.702Z,9.00
2023-02-27T13:50:17.790Z,9.20
2023-02-27T13:52:46.952Z,9.10
2023-02-27T13:55:43.512Z,9.10
2023-02-27T13:58:18.233Z,9.20
2023-02-27T14:00:56.435Z,9.20
2023-02-27T14:03:30.203Z,9.30
2023-02-27T14:06:02.612Z,9.00
2023-02-27T14:08:49.808Z,9.00
2023-02-27T14:11:23.228Z,8.80
2023-02-27T14:13:50.185Z,8.70
2023-02-27T14:16:41.955Z,8.70
2023-02-27T14:19:24.155Z,8.60
2023-02-27T14:22:03.768Z,8.70
2023-02-27T14:25:02.532Z,8.60
2023-02-27T14:27:59.798Z,8.60
2023-02-27T14:30:38.546Z,8.60
2023-02-27T14:33:41.097Z,8.40
2023-02-27T14:36:30.187Z,8.40
2023-02-27T14:39:00.307Z,8.40
2023-02-27T14:41:51.491Z,8.40
2023-02-27T14:44:24.823Z,8.30
2023-02-27T14:46:54.825Z,8.20
2023-02-27T14:49:36.296Z,8.10
2023-02-27T14:52:27.141Z,8.10
2023-02-27T14:55:13.133Z,7.90
2023-02-27T14:57:40.113Z,7.90
2023-02-27T15:00:08.378Z,7.80
2023-02-27T15:02:36.258Z,7.80
2023-02-27T15:05:03.748Z,7.80
2023-02-27T15:07:33.831Z,7.70
2023-02-27T15:10:05.417Z,7.60
2023-02-27T15:12:37.830Z,7.60
2023-02-27T15:15:10.142Z,7.70
2023-02-27T15:17:43.089Z,7.70
2023-02-27T15:20:31.295Z,7.80
2023-02-27T15:23:21.714Z,7.70
2023-02-27T15:25:48.771Z,7.60
2023-02-27T15:28:32.331Z,7.60
2023-02-27T15:30:59.382Z,7.50
2023-02-27T15:33:32.300Z,7.50
2023-02-27T15:36:00.823Z,7.60
2023-02-27T15:38:32.014Z,7.60
2023-02-27T15:41:01.407Z,7.50
2023-02-27T15:43:29.527Z,7.40
2023-02-27T15:45:58.302Z,7.30
2023-02-27T15:48:25.943Z,7.20
2023-02-27T15:50:58.147Z,7.10
2023-02-27T15:53:30.900Z,7.10
2023-02-27T15:56:01.337Z,7.00
2023-02-27T15:58:31.767Z,6.90
2023-02-27T16:01:15.855Z,6.80
2023-02-27T16:03:49.641Z,6.80
2023-02-27T16:06:27.059Z,6.80
2023-02-27T16:09:04.413Z,6.80
2023-02-27T16:11:37.247Z,6.80
2023-02-27T16:14:08.499Z,6.60
2023-02-27T16:16:37.562Z,6.50
2023-02-27T16:19:26.997Z,6.50
2023-02-27T16:22:15.963Z,6.40
2023-02-27T16:24:43.830Z,6.50
2023-02-27T16:27:28.862Z,6.60
2023-02-27T16:30:03.308Z,6.50
2023-02-27T16:32:57.797Z,6.50
2023-02-27T16:35:28.957Z,6.30
2023-02-27T16:38:02.004Z,6.20
2023-02-27T16:40:29.945Z,6.10
2023-02-27T16:42:57.413Z,5.90
2023-02-27T16:45:27.868Z,5.90
2023-02-27T16:48:00.120Z,5.80
2023-02-27T16:50:32.517Z,5.80
2023-02-27T16:52:59.653Z,5.80
2023-02-27T16:55:27.329Z,5.80
2023-02-27T16:57:54.391Z,5.70
2023-02-27T17:00:24.999Z,5.70
2023-02-27T17:02:52.037Z,5.60
2023-02-27T17:05:19.671Z,5.50
2023-02-27T17:07:46.693Z,5.50
2023-02-27T17:10:22.017Z,5.40
2023-02-27T17:12:49.096Z,5.30
2023-02-27T17:15:17.187Z,5.30
2023-02-27T17:17:44.681Z,5.30
2023-02-27T17:20:13.692Z,5.20
2023-02-27T17:22:44.632Z,5.20
2023-02-27T17:25:13.698Z,5.10
2023-02-27T17:27:43.581Z,5.00
2023-02-27T17:30:11.524Z,4.90
2023-02-27T17:32:38.536Z,4.90
2023-02-27T17:35:06.263Z,4.70
2023-02-27T17:37:33.416Z,4.70
2023-02-27T17:40:03.992Z,4.60
2023-02-27T17:42:32.502Z,4.50
2023-02-27T17:45:01.262Z,4.50
2023-02-27T17:47:28.366Z,4.50
2023-02-27T17:49:55.344Z,4.50
2023-02-27T17:52:22.377Z,4.60
2023-02-27T17:54:49.556Z,4.60
2023-02-27T17:57:17.133Z,4.70
2023-02-27T17:59:44.375Z,4.70
2023-02-27T18:02:13.576Z,4.70
2023-02-27T18:04:40.908Z,4.70
2023-02-27T18:07:07.960Z,4.60
2023-02-27T18:09:34.921Z,4.60
2023-02-27T18:12:03.163Z,4.50
2023-02-27T18:14:30.160Z,4.40
2023-02-27T18:16:57.091Z,4.40
2023-02-27T18:19:25.273Z,4.30
2023-02-27T18:21:52.266Z,4.30
2023-02-27T18:24:19.619Z,4.30
2023-02-27T18:26:46.694Z,4.30
2023-02-27T18:29:17.812Z,4.30
2023-02-27T18:31:50.231Z,4.20
2023-02-27T18:34:17.360Z,4.20
2023-02-27T18:36:45.712Z,4.10
2023-02-27T18:39:12.862Z,4.10
2023-02-27T18:41:39.859Z,4.00
2023-02-27T18:44:08.123Z,3.90
2023-02-27T18:46:35.458Z,3.90
2023-02-27T18:49:02.493Z,3.90
2023-02-27T18:51:29.819Z,3.80
2023-02-27T18:53:58.398Z,3.70
2023-02-27T18:56:27.818Z,3.70
2023-02-27T18:58:58.231Z,3.60
2023-02-27T19:01:33.185Z,3.60
2023-02-27T19:04:04.930Z,3.60
2023-02-27T19:06:35.141Z,3.50
2023-02-27T19:09:05.686Z,3.50
2023-02-27T19:11:35.991Z,3.50
2023-02-27T19:14:06.794Z,3.50
2023-02-27T19:16:34.102Z,3.50
2023-02-27T19:19:04.946Z,3.40
2023-02-27T19:21:32.945Z,3.30
2023-02-27T19:24:00.875Z,3.20
2023-02-27T19:26:29.043Z,3.20
2023-02-27T19:28:56.667Z,3.10
2023-02-27T19:31:25.122Z,3.00
2023-02-27T19:33:52.538Z,3.00
2023-02-27T19:36:22.133Z,3.00
2023-02-27T19:38:50.060Z,2.90
2023-02-27T19:41:17.524Z,2.80
2023-02-27T19:43:46.214Z,2.80
2023-02-27T19:46:23.123Z,2.70
2023-02-27T19:48:56.080Z,2.70
2023-02-27T19:51:23.912Z,2.60
2023-02-27T19:53:51.151Z,2.60
2023-02-27T19:56:21.718Z,2.50
2023-02-27T19:58:49.873Z,2.50
2023-02-27T20:01:29.744Z,2.50
2023-02-27T20:03:57.403Z,2.40
2023-02-27T20:06:28.305Z,2.40
2023-02-27T20:08:57.022Z,2.40
2023-02-27T20:11:24.268Z,2.40
2023-02-27T20:13:52.165Z,2.40
2023-02-27T20:16:22.438Z,2.40
2023-02-27T20:18:50.149Z,2.30
2023-02-27T20:21:21.493Z,2.30
2023-02-27T20:23:51.635Z,2.20
2023-02-27T20:26:32.604Z,2.30
2023-02-27T20:29:10.924Z,2.20
2023-02-27T20:31:40.226Z,2.20
2023-02-27T20:34:11.034Z,2.20
2023-02-27T20:36:39.761Z,2.20
2023-02-27T20:39:08.296Z,2.10
2023-02-27T20:41:35.614Z,2.10
2023-02-27T20:44:04.798Z,2.10
2023-02-27T20:46:32.035Z,2.10
2023-02-27T20:49:02.133Z,2.10
2023-02-27T20:51:42.417Z,2.10
2023-02-27T20:54:14.202Z,2.10
2023-02-27T20:56:43.257Z,2.10
2023-02-27T20:59:15.445Z,2.00
2023-02-27T21:01:54.128Z,2.10
2023-02-27T21:04:34.125Z,2.00
2023-02-27T21:07:01.236Z,2.00
2023-02-27T21:09:28.197Z,2.00
2023-02-27T21:11:55.282Z,1.90
2023-02-27T21:14:23.449Z,1.90
2023-02-27T21:16:50.384Z,1.90
2023-02-27T21:19:17.378Z,1.90
2023-02-27T21:21:44.397Z,1.80
2023-02-27T21:24:11.353Z,1.70
2023-02-27T21:26:39.454Z,1.70
2023-02-27T21:29:13.989Z,1.60
2023-02-27T21:31:45.191Z,1.60
2023-02-27T21:34:16.297Z,1.50
2023-02-27T21:36:45.123Z,1.60
2023-02-27T21:39:25.857Z,1.50
2023-02-27T21:41:53.243Z,1.50
2023-02-27T21:44:25.176Z,1.50
2023-02-27T21:46:55.867Z,1.50
2023-02-27T21:49:26.854Z,1.50
2023-02-27T21:51:54.415Z,1.50
2023-02-27T21:54:22.191Z,1.50
2023-02-27T21:56:49.717Z,1.40
2023-02-27T21:59:19.117Z,1.40
2023-02-27T22:01:48.129Z,1.40
2023-02-27T22:04:18.168Z,1.40
2023-02-27T22:06:45.424Z,1.40
2023-02-27T22:09:12.729Z,1.40
2023-02-27T22:11:40.991Z,1.40
2023-02-27T22:14:09.065Z,1.40
2023-02-27T22:16:36.528Z,1.40
2023-02-27T22:19:08.973Z,1.40
2023-02-27T22:21:37.746Z,1.30
2023-02-27T22:24:05.826Z,1.30
2023-02-27T22:26:33.549Z,1.30
2023-02-27T22:29:01.321Z,1.30
2023-02-27T22:31:34.774Z,1.30
2023-02-27T22:34:12.565Z,1.30
2023-02-27T22:36:41.750Z,1.20
2023-02-27T22:39:08.957Z,1.20
2023-02-27T22:41:39.582Z,1.10
2023-02-27T22:44:08.588Z,1.00
2023-02-27T22:46:43.316Z,1.00
2023-02-27T22:49:17.945Z,1.00
2023-02-27T22:51:47.066Z,0.90
2023-02-27T22:54:15.648Z,0.80
2023-02-27T22:56:43.415Z,0.90
2023-02-27T22:59:10.627Z,0.80
2023-02-27T23:01:38.734Z,0.90
2023-02-27T23:04:11.440Z,0.80
2023-02-27T23:06:40.382Z,0.70
2023-02-27T23:09:12.803Z,0.50
2023-02-27T23:11:40.060Z,0.40
2023-02-27T23:14:07.210Z,0.30
2023-02-27T23:16:34.677Z,0.20
2023-02-27T23:19:02.453Z,0.10
2023-02-27T23:21:35.548Z,0.00
2023-02-27T23:24:08.863Z,0.00
2023-02-27T23:26:48.487Z,-0.10
2023-02-27T23:29:24.537Z,-0.20
2023-02-27T23:31:51.771Z,-0.20
2023-02-27T23:34:18.816Z,-0.20
2023-02-27T23:36:45.813Z,-0.20
2023-02-27T23:39:12.872Z,-0.20
2023-02-27T23:41:39.839Z,-0.30
2023-02-27T23:44:25.559Z,-0.30
2023-02-27T23:46:52.806Z,-0.30
2023-02-27T23:49:19.992Z,-0.40
2023-02-27T23:51:47.161Z,-0.40
2023-02-27T23:54:14.128Z,-0.50
2023-02-27T23:56:41.280Z,-0.50
2023-02-27T23:59:11.296Z,-0.50
